Time;durP1;ratioP1;P1;durP2;ratioP2;P2;SDS_P1;SDS_P2;PMS_P1;PMS_P2;Temp;Humidity;BMP_temperature;BMP_pressure;BME280_temperature;BME280_humidity;BME280_pressure;Samples;Min_cycle;Max_cycle;Signal;HPM_P1;HPM_P2
2021/11/25 00:02:16;;;;;;;;;;;7.00;97.90;;;;;;5031429;28;20000;-77
2021/11/25 00:04:41;;;;;;;;;;;6.90;98.30;;;;;;5027749;28;19975;-77
2021/11/25 00:07:07;;;;;;;;;;;6.80;98.10;;;;;;5031808;28;20479;-77
2021/11/25 00:09:32;;;;;;;;;;;6.80;98.20;;;;;;5031309;28;19913;-76
2021/11/25 00:11:58;;;;;;;;;;;6.80;98.30;;;;;;5029589;28;19928;-76
2021/11/25 00:14:23;;;;;;;;;;;6.80;98.50;;;;;;5005578;28;19992;-77
2021/11/25 00:16:49;;;;;;;;;;;6.70;98.70;;;;;;5027298;28;19925;-77
2021/11/25 00:19:14;;;;;;;;;;;6.70;98.80;;;;;;5028538;28;19968;-77
2021/11/25 00:21:40;;;;;;;;;;;6.70;98.90;;;;;;5030891;28;19920;-77
2021/11/25 00:24:06;;;;;;;;;;;6.60;98.80;;;;;;5030379;28;19914;-76
2021/11/25 00:26:35;;;;;;;;;;;6.60;99.10;;;;;;5029272;28;20343;-77
2021/11/25 00:29:01;;;;;;;;;;;6.60;99.00;;;;;;5029558;28;19917;-77
2021/11/25 00:31:26;;;;;;;;;;;6.50;99.10;;;;;;5028211;28;19920;-77
2021/11/25 00:33:52;;;;;;;;;;;6.60;99.20;;;;;;5011395;28;20375;-77
2021/11/25 00:36:17;;;;;;;;;;;6.70;99.10;;;;;;5029340;28;20284;-77
2021/11/25 00:38:46;;;;;;;;;;;6.70;99.30;;;;;;5023117;28;22366;-77
2021/11/25 00:41:12;;;;;;;;;;;6.70;99.20;;;;;;5013663;28;19914;-77
2021/11/25 00:43:37;;;;;;;;;;;6.70;99.10;;;;;;5029398;28;19948;-77
2021/11/25 00:46:03;;;;;;;;;;;6.70;99.10;;;;;;5011855;28;19919;-77
2021/11/25 00:48:28;;;;;;;;;;;6.70;99.10;;;;;;5029662;28;20012;-76
2021/11/25 00:50:54;;;;;;;;;;;6.70;99.10;;;;;;5030515;28;19917;-77
2021/11/25 00:53:19;;;;;;;;;;;6.70;99.40;;;;;;5030744;28;19913;-76
2021/11/25 00:55:45;;;;;;;;;;;6.70;99.40;;;;;;5031839;28;19921;-77
2021/11/25 00:58:10;;;;;;;;;;;6.60;99.50;;;;;;5028121;28;19920;-76
2021/11/25 01:00:36;;;;;;;;;;;6.60;99.30;;;;;;5022759;28;19924;-68
2021/11/25 01:03:01;;;;;;;;;;;6.60;99.40;;;;;;4999225;28;20000;-68
2021/11/25 01:05:27;;;;;;;;;;;6.60;99.30;;;;;;5011544;28;19917;-68
2021/11/25 01:07:52;;;;;;;;;;;6.60;99.20;;;;;;5030337;28;19917;-68
2021/11/25 01:10:21;;;;;;;;;;;6.60;99.30;;;;;;5027183;28;20423;-68
2021/11/25 01:12:47;;;;;;;;;;;6.60;99.40;;;;;;5025593;28;19923;-69
2021/11/25 01:15:13;;;;;;;;;;;6.70;99.50;;;;;;5026329;28;20322;-65
2021/11/25 01:17:41;;;;;;;;;;;6.70;99.40;;;;;;5026040;28;19917;-65
2021/11/25 01:20:10;;;;;;;;;;;6.70;99.30;;;;;;5028908;28;19914;-69
2021/11/25 01:22:35;;;;;;;;;;;6.70;99.40;;;;;;5026102;28;19917;-69
2021/11/25 01:25:01;;;;;;;;;;;6.70;99.30;;;;;;5027808;28;19921;-69
2021/11/25 01:27:26;;;;;;;;;;;6.80;99.20;;;;;;5023453;28;19917;-69
2021/11/25 01:29:51;;;;;;;;;;;6.70;99.10;;;;;;5028761;28;19921;-69
2021/11/25 01:32:17;;;;;;;;;;;6.70;99.10;;;;;;5023691;28;20660;-69
2021/11/25 01:34:43;;;;;;;;;;;6.70;99.20;;;;;;5028895;28;20292;-70
2021/11/25 01:37:08;;;;;;;;;;;6.70;99.30;;;;;;5028504;28;19932;-70
2021/11/25 01:39:34;;;;;;;;;;;6.70;99.20;;;;;;5030729;28;19916;-70
2021/11/25 01:41:59;;;;;;;;;;;6.70;99.10;;;;;;5026957;28;19917;-70
2021/11/25 01:44:25;;;;;;;;;;;6.70;99.10;;;;;;5024073;28;20419;-70
2021/11/25 01:46:50;;;;;;;;;;;6.70;99.20;;;;;;5025253;28;20391;-70
2021/11/25 01:49:16;;;;;;;;;;;6.70;99.20;;;;;;5026389;28;20331;-70
2021/11/25 01:51:41;;;;;;;;;;;6.70;99.20;;;;;;5027427;28;19913;-70
2021/11/25 01:54:07;;;;;;;;;;;6.70;99.20;;;;;;5025697;28;20012;-70
2021/11/25 01:56:32;;;;;;;;;;;6.70;99.20;;;;;;5028313;28;20376;-70
2021/11/25 01:58:58;;;;;;;;;;;6.80;99.50;;;;;;5025488;28;20019;-70
2021/11/25 02:01:24;;;;;;;;;;;6.80;99.20;;;;;;5027510;28;19913;-70
2021/11/25 02:03:51;;;;;;;;;;;6.80;99.20;;;;;;5026094;28;19917;-70
2021/11/25 02:06:18;;;;;;;;;;;6.70;99.20;;;;;;5027362;28;20016;-65
2021/11/25 02:08:44;;;;;;;;;;;6.70;99.40;;;;;;5026632;28;20027;-65
2021/11/25 02:11:10;;;;;;;;;;;6.70;99.50;;;;;;5029239;28;20399;-64
2021/11/25 02:13:36;;;;;;;;;;;6.70;99.40;;;;;;5024535;28;19913;-65
2021/11/25 02:16:01;;;;;;;;;;;6.70;99.40;;;;;;5025520;28;19967;-65
2021/11/25 02:18:27;;;;;;;;;;;6.70;99.40;;;;;;5027284;28;19933;-65
2021/11/25 02:20:53;;;;;;;;;;;6.70;99.50;;;;;;5025625;28;20454;-65
2021/11/25 02:23:20;;;;;;;;;;;6.70;99.40;;;;;;5024243;28;19932;-66
2021/11/25 02:25:46;;;;;;;;;;;6.70;99.40;;;;;;5025576;28;19916;-65
2021/11/25 02:28:12;;;;;;;;;;;6.70;99.50;;;;;;5025431;28;20302;-65
2021/11/25 02:30:37;;;;;;;;;;;6.80;99.40;;;;;;5009548;28;20605;-65
2021/11/25 02:33:02;;;;;;;;;;;6.70;99.30;;;;;;5027129;28;19916;-65
2021/11/25 02:35:30;;;;;;;;;;;6.70;99.40;;;;;;5022381;28;20451;-65
2021/11/25 02:37:55;;;;;;;;;;;6.80;99.40;;;;;;5025447;28;19917;-65
2021/11/25 02:40:34;;;;;;;;;;;6.80;99.30;;;;;;5025162;28;20368;-68
2021/11/25 02:43:01;;;;;;;;;;;6.70;99.20;;;;;;5021871;28;19917;-68
2021/11/25 02:45:27;;;;;;;;;;;6.70;99.40;;;;;;5025807;28;20334;-68
2021/11/25 02:47:53;;;;;;;;;;;6.70;99.40;;;;;;5029642;28;19936;-65
2021/11/25 02:50:19;;;;;;;;;;;6.70;99.40;;;;;;5022692;28;20447;-65
2021/11/25 02:52:45;;;;;;;;;;;6.70;99.40;;;;;;5028510;28;20292;-65
2021/11/25 02:55:11;;;;;;;;;;;6.70;99.40;;;;;;5027848;28;19917;-65
2021/11/25 02:57:37;;;;;;;;;;;6.70;99.50;;;;;;5026686;28;19916;-65
2021/11/25 03:00:05;;;;;;;;;;;6.70;99.30;;;;;;5027004;28;19971;-65
2021/11/25 03:02:30;;;;;;;;;;;6.70;99.30;;;;;;5022299;28;19933;-65
2021/11/25 03:04:56;;;;;;;;;;;6.70;99.40;;;;;;5026506;28;19946;-65
2021/11/25 03:07:21;;;;;;;;;;;6.70;99.30;;;;;;5008013;28;19920;-65
2021/11/25 03:09:47;;;;;;;;;;;6.60;99.10;;;;;;5027192;28;19924;-65
2021/11/25 03:12:12;;;;;;;;;;;6.60;99.20;;;;;;5022239;28;19920;-65
2021/11/25 03:14:37;;;;;;;;;;;6.50;99.30;;;;;;5024578;28;19927;-65
2021/11/25 03:17:03;;;;;;;;;;;6.60;99.40;;;;;;5025493;28;19917;-65
2021/11/25 03:19:28;;;;;;;;;;;6.60;99.30;;;;;;5025152;28;19949;-65
2021/11/25 03:21:54;;;;;;;;;;;6.60;99.50;;;;;;5021911;28;20010;-65
2021/11/25 03:24:19;;;;;;;;;;;6.60;99.50;;;;;;5024794;28;20052;-65
2021/11/25 03:26:45;;;;;;;;;;;6.70;99.50;;;;;;5009241;28;20007;-65
2021/11/25 03:29:10;;;;;;;;;;;6.60;99.40;;;;;;5022141;28;19921;-65
2021/11/25 03:31:36;;;;;;;;;;;6.60;99.40;;;;;;5025531;28;19995;-65
2021/11/25 03:34:02;;;;;;;;;;;6.60;99.30;;;;;;5025182;28;19992;-65
2021/11/25 03:36:28;;;;;;;;;;;6.60;99.30;;;;;;5023562;28;19926;-65
2021/11/25 03:38:54;;;;;;;;;;;6.60;99.30;;;;;;5026292;28;20123;-65
2021/11/25 03:41:20;;;;;;;;;;;6.60;99.40;;;;;;5007715;28;19928;-65
2021/11/25 03:43:46;;;;;;;;;;;6.60;99.30;;;;;;5025273;28;19917;-65
2021/11/25 03:46:11;;;;;;;;;;;6.60;99.40;;;;;;5025071;28;19988;-65
2021/11/25 03:48:37;;;;;;;;;;;6.60;99.20;;;;;;5026431;28;19924;-65
2021/11/25 03:51:03;;;;;;;;;;;6.60;99.10;;;;;;5028747;28;19964;-65
2021/11/25 03:53:29;;;;;;;;;;;6.50;99.10;;;;;;5024034;28;19923;-65
2021/11/25 03:55:55;;;;;;;;;;;6.50;99.20;;;;;;5027084;28;19924;-65
2021/11/25 03:58:20;;;;;;;;;;;6.50;99.30;;;;;;5023961;28;19917;-65
2021/11/25 04:00:46;;;;;;;;;;;6.50;99.50;;;;;;5027267;28;19917;-65
2021/11/25 04:03:12;;;;;;;;;;;6.50;99.40;;;;;;5027200;28;19920;-65
2021/11/25 04:05:37;;;;;;;;;;;6.50;99.40;;;;;;5028097;28;19917;-65
2021/11/25 04:08:03;;;;;;;;;;;6.50;99.50;;;;;;5025163;28;19966;-65
2021/11/25 04:10:29;;;;;;;;;;;6.50;99.30;;;;;;5025000;28;19917;-65
2021/11/25 04:12:54;;;;;;;;;;;6.50;99.40;;;;;;5025156;28;20004;-65
2021/11/25 04:15:20;;;;;;;;;;;6.50;99.50;;;;;;5023903;28;20002;-65
2021/11/25 04:17:45;;;;;;;;;;;6.50;99.50;;;;;;5026312;28;19976;-65
2021/11/25 04:20:11;;;;;;;;;;;6.40;99.20;;;;;;5029450;28;19913;-65
2021/11/25 04:22:36;;;;;;;;;;;6.40;99.30;;;;;;5028075;28;19917;-64
2021/11/25 04:25:03;;;;;;;;;;;6.40;99.30;;;;;;5030150;28;20363;-65
2021/11/25 04:27:28;;;;;;;;;;;6.30;99.40;;;;;;5025837;28;19922;-65
2021/11/25 04:35:33;;;;;;;;;;;6.30;99.50;;;;;;5029305;28;19971;-65
2021/11/25 04:38:03;;;;;;;;;;;6.30;99.60;;;;;;5030816;28;19999;-65
2021/11/25 04:40:34;;;;;;;;;;;6.40;99.60;;;;;;5029932;28;19964;-65
2021/11/25 04:43:00;;;;;;;;;;;6.40;99.60;;;;;;5027258;28;19917;-65
2021/11/25 04:45:26;;;;;;;;;;;6.40;99.60;;;;;;5030530;28;19917;-65
2021/11/25 04:47:51;;;;;;;;;;;6.40;99.60;;;;;;5030117;28;19914;-65
2021/11/25 04:50:17;;;;;;;;;;;6.50;99.60;;;;;;5029709;28;19913;-65
2021/11/25 04:52:43;;;;;;;;;;;6.40;99.50;;;;;;5010640;28;19920;-65
2021/11/25 04:55:08;;;;;;;;;;;6.50;99.60;;;;;;5012489;28;20004;-65
2021/11/25 04:57:34;;;;;;;;;;;6.50;99.40;;;;;;5027041;28;19923;-65
2021/11/25 04:59:59;;;;;;;;;;;6.50;99.40;;;;;;5009745;28;19929;-65
2021/11/25 05:02:25;;;;;;;;;;;6.40;99.50;;;;;;5026829;28;19913;-65
2021/11/25 05:04:50;;;;;;;;;;;6.40;99.30;;;;;;5027592;28;20411;-65
2021/11/25 05:07:16;;;;;;;;;;;6.40;99.30;;;;;;5028673;28;20307;-65
2021/11/25 05:09:41;;;;;;;;;;;6.40;99.20;;;;;;5027309;28;19998;-65
2021/11/25 05:12:07;;;;;;;;;;;6.40;99.30;;;;;;5027778;28;19917;-65
2021/11/25 05:14:32;;;;;;;;;;;6.40;99.20;;;;;;5025572;28;19913;-65
2021/11/25 05:16:58;;;;;;;;;;;6.30;99.20;;;;;;5029594;28;19913;-65
2021/11/25 05:19:23;;;;;;;;;;;6.30;99.10;;;;;;5025237;28;19913;-65
2021/11/25 05:21:49;;;;;;;;;;;6.30;99.20;;;;;;5029980;28;19924;-65
2021/11/25 05:24:17;;;;;;;;;;;6.30;99.40;;;;;;5025173;28;19917;-65
2021/11/25 05:26:43;;;;;;;;;;;6.30;99.50;;;;;;5010178;28;19917;-65
2021/11/25 05:29:08;;;;;;;;;;;6.30;99.50;;;;;;5024596;28;19913;-64
2021/11/25 05:31:34;;;;;;;;;;;6.30;99.50;;;;;;5028570;28;19917;-65
2021/11/25 05:33:59;;;;;;;;;;;6.30;99.80;;;;;;5026084;28;19925;-65
2021/11/25 05:36:25;;;;;;;;;;;6.30;99.60;;;;;;4998082;28;19920;-66
2021/11/25 05:38:50;;;;;;;;;;;6.30;99.60;;;;;;5027429;28;19913;-65
2021/11/25 05:41:16;;;;;;;;;;;6.30;99.60;;;;;;5027163;28;19924;-67
2021/11/25 05:43:41;;;;;;;;;;;6.30;99.60;;;;;;5023161;28;20000;-65
2021/11/25 05:46:06;;;;;;;;;;;6.30;99.50;;;;;;5027893;28;19967;-65
2021/11/25 05:48:32;;;;;;;;;;;6.30;99.50;;;;;;5022540;28;19919;-65
2021/11/25 05:50:57;;;;;;;;;;;6.30;99.40;;;;;;5025660;28;20008;-65
2021/11/25 05:53:23;;;;;;;;;;;6.30;99.60;;;;;;5022687;28;20031;-66
2021/11/25 05:55:48;;;;;;;;;;;6.30;99.60;;;;;;5022829;28;20145;-66
2021/11/25 05:58:14;;;;;;;;;;;6.30;99.60;;;;;;5023252;28;19913;-65
2021/11/25 06:00:40;;;;;;;;;;;6.30;99.50;;;;;;5027816;28;19921;-66
2021/11/25 06:03:05;;;;;;;;;;;6.30;99.60;;;;;;5010486;28;19929;-66
2021/11/25 06:05:31;;;;;;;;;;;6.20;99.50;;;;;;5026393;28;19913;-66
2021/11/25 06:07:59;;;;;;;;;;;6.20;99.60;;;;;;5009503;28;20035;-66
2021/11/25 06:10:24;;;;;;;;;;;6.20;99.50;;;;;;5025323;28;20299;-66
2021/11/25 06:12:50;;;;;;;;;;;6.20;99.50;;;;;;5025185;28;19917;-66
2021/11/25 06:15:16;;;;;;;;;;;6.30;99.60;;;;;;5020670;28;20335;-66
2021/11/25 06:17:42;;;;;;;;;;;6.30;99.70;;;;;;5024082;28;19917;-66
2021/11/25 06:20:11;;;;;;;;;;;6.20;99.50;;;;;;5024160;28;19913;-66
2021/11/25 06:22:38;;;;;;;;;;;6.20;99.60;;;;;;5020827;28;19917;-66
2021/11/25 06:25:03;;;;;;;;;;;6.20;99.50;;;;;;5024314;28;20249;-66
2021/11/25 06:27:29;;;;;;;;;;;6.30;99.60;;;;;;5027841;28;19917;-66
2021/11/25 06:29:54;;;;;;;;;;;6.30;99.50;;;;;;5025144;28;19913;-67
2021/11/25 06:32:19;;;;;;;;;;;6.30;99.50;;;;;;5008576;28;19917;-67
2021/11/25 06:34:45;;;;;;;;;;;6.30;99.20;;;;;;5026076;28;19917;-66
2021/11/25 06:37:10;;;;;;;;;;;6.20;99.40;;;;;;5029321;28;20372;-66
2021/11/25 06:39:36;;;;;;;;;;;6.30;99.40;;;;;;5025982;28;19913;-66
2021/11/25 06:42:01;;;;;;;;;;;6.20;99.50;;;;;;5028784;28;19924;-66
2021/11/25 06:44:27;;;;;;;;;;;6.30;99.50;;;;;;5028352;28;19917;-66
2021/11/25 06:46:52;;;;;;;;;;;6.30;99.50;;;;;;5026676;28;20367;-66
2021/11/25 06:49:18;;;;;;;;;;;6.30;99.50;;;;;;5027774;28;19932;-66
2021/11/25 06:51:43;;;;;;;;;;;6.30;99.40;;;;;;5027560;28;20379;-66
2021/11/25 06:54:08;;;;;;;;;;;6.30;99.40;;;;;;5028324;28;19925;-66
2021/11/25 06:56:34;;;;;;;;;;;6.30;99.40;;;;;;5026051;28;19917;-66
2021/11/25 06:58:59;;;;;;;;;;;6.30;99.40;;;;;;5028705;28;19921;-71
2021/11/25 07:01:25;;;;;;;;;;;6.30;99.30;;;;;;5022326;28;20008;-73
2021/11/25 07:03:51;;;;;;;;;;;6.30;99.30;;;;;;5018918;28;19990;-73
2021/11/25 07:06:16;;;;;;;;;;;6.30;99.40;;;;;;5017388;28;19936;-74
2021/11/25 07:08:41;;;;;;;;;;;6.30;99.50;;;;;;5027004;28;19940;-74
2021/11/25 07:11:07;;;;;;;;;;;6.30;99.40;;;;;;5025578;28;19913;-74
2021/11/25 07:13:33;;;;;;;;;;;6.30;99.40;;;;;;5022287;28;20380;-74
2021/11/25 07:15:58;;;;;;;;;;;6.30;99.20;;;;;;5007704;28;19962;-74
2021/11/25 07:18:24;;;;;;;;;;;6.30;99.30;;;;;;5023938;28;19925;-71
2021/11/25 07:20:49;;;;;;;;;;;6.20;99.20;;;;;;5024645;28;19921;-77
2021/11/25 07:23:15;;;;;;;;;;;6.20;99.10;;;;;;5021168;28;19925;-73
2021/11/25 07:25:40;;;;;;;;;;;6.10;99.20;;;;;;5025907;28;20423;-72
2021/11/25 07:28:06;;;;;;;;;;;6.10;99.30;;;;;;5028556;28;20372;-72
2021/11/25 07:30:31;;;;;;;;;;;6.10;99.20;;;;;;5026810;28;19917;-72
2021/11/25 07:32:57;;;;;;;;;;;6.10;99.30;;;;;;5021635;28;20396;-72
2021/11/25 07:35:23;;;;;;;;;;;6.10;99.40;;;;;;5027044;28;19917;-73
2021/11/25 07:37:51;;;;;;;;;;;6.10;99.40;;;;;;5023305;28;19925;-73
2021/11/25 07:40:17;;;;;;;;;;;6.00;99.50;;;;;;5026051;28;19917;-73
2021/11/25 07:42:43;;;;;;;;;;;6.00;99.50;;;;;;5023064;28;19920;-73
2021/11/25 07:45:08;;;;;;;;;;;6.00;99.50;;;;;;5025124;28;19920;-75
2021/11/25 07:47:34;;;;;;;;;;;6.00;99.50;;;;;;5023591;28;19914;-74
2021/11/25 07:50:04;;;;;;;;;;;6.00;99.50;;;;;;5023887;28;19947;-74
2021/11/25 07:52:30;;;;;;;;;;;6.00;99.50;;;;;;5026313;28;19928;-74
2021/11/25 07:54:55;;;;;;;;;;;6.00;99.50;;;;;;5030832;28;20376;-74
2021/11/25 07:57:21;;;;;;;;;;;6.00;99.50;;;;;;5027151;28;19932;-74
2021/11/25 07:59:46;;;;;;;;;;;6.00;99.50;;;;;;5028886;28;19963;-73
2021/11/25 08:02:11;;;;;;;;;;;6.00;99.60;;;;;;5028337;28;20371;-72
2021/11/25 08:04:37;;;;;;;;;;;6.00;99.60;;;;;;5012504;28;19913;-72
2021/11/25 08:07:02;;;;;;;;;;;6.00;99.50;;;;;;5030053;28;20150;-75
2021/11/25 08:09:28;;;;;;;;;;;6.10;99.60;;;;;;5028757;28;19929;-74
2021/11/25 08:11:53;;;;;;;;;;;6.10;99.50;;;;;;5027070;28;20395;-75
2021/11/25 08:14:19;;;;;;;;;;;6.10;99.50;;;;;;5022982;28;20426;-69
2021/11/25 08:16:44;;;;;;;;;;;6.10;99.50;;;;;;5025036;28;19921;-69
2021/11/25 08:19:10;;;;;;;;;;;6.00;99.50;;;;;;5027409;28;19956;-69
2021/11/25 08:21:35;;;;;;;;;;;6.10;99.70;;;;;;5030286;28;19913;-68
2021/11/25 08:24:01;;;;;;;;;;;6.10;99.60;;;;;;5011544;28;19917;-69
2021/11/25 08:26:26;;;;;;;;;;;6.10;99.60;;;;;;5028844;28;19913;-69
2021/11/25 08:28:52;;;;;;;;;;;6.10;99.60;;;;;;5029325;28;19971;-69
2021/11/25 08:31:17;;;;;;;;;;;6.20;99.50;;;;;;5030109;28;19913;-68
2021/11/25 08:33:42;;;;;;;;;;;6.20;99.50;;;;;;5022281;28;19917;-75
2021/11/25 08:36:08;;;;;;;;;;;6.20;99.50;;;;;;5030082;28;20376;-74
2021/11/25 08:38:33;;;;;;;;;;;6.30;99.50;;;;;;5026961;28;20335;-74
2021/11/25 08:41:01;;;;;;;;;;;6.30;99.50;;;;;;5029234;28;19913;-75
2021/11/25 08:43:27;;;;;;;;;;;6.30;99.30;;;;;;5025820;28;20020;-75
2021/11/25 08:45:52;;;;;;;;;;;6.30;99.50;;;;;;5028943;28;20011;-75
2021/11/25 08:48:18;;;;;;;;;;;6.30;99.30;;;;;;5007380;28;20372;-73
2021/11/25 08:50:44;;;;;;;;;;;6.40;99.40;;;;;;5025053;28;20284;-71
2021/11/25 08:53:13;;;;;;;;;;;6.40;99.20;;;;;;5025568;28;20216;-77
2021/11/25 08:55:39;;;;;;;;;;;6.40;99.10;;;;;;5029061;28;19927;-80
2021/11/25 08:58:04;;;;;;;;;;;6.40;99.10;;;;;;5025547;28;19921;-74
2021/11/25 09:00:33;;;;;;;;;;;6.50;99.10;;;;;;5026939;28;19922;-73
2021/11/25 09:02:58;;;;;;;;;;;6.50;99.10;;;;;;5018823;28;20296;-73
2021/11/25 09:05:24;;;;;;;;;;;6.50;99.00;;;;;;5021999;28;19933;-73
2021/11/25 09:07:49;;;;;;;;;;;6.40;98.90;;;;;;5007622;28;19921;-74
2021/11/25 09:10:15;;;;;;;;;;;6.40;99.00;;;;;;5026460;28;19917;-73
2021/11/25 09:12:40;;;;;;;;;;;6.30;98.80;;;;;;5025001;28;19919;-72
2021/11/25 09:15:06;;;;;;;;;;;6.20;98.70;;;;;;5026813;28;19913;-75
2021/11/25 09:17:31;;;;;;;;;;;6.20;98.60;;;;;;5026905;28;19917;-77
2021/11/25 09:19:58;;;;;;;;;;;6.20;98.80;;;;;;5027079;28;20440;-79
2021/11/25 09:22:24;;;;;;;;;;;6.20;98.70;;;;;;5027600;28;19921;-76
2021/11/25 09:24:49;;;;;;;;;;;6.20;98.80;;;;;;5030866;28;20415;-76
2021/11/25 09:27:15;;;;;;;;;;;6.20;98.90;;;;;;5025046;28;19922;-77
2021/11/25 09:29:40;;;;;;;;;;;6.20;98.90;;;;;;5017654;28;19964;-77
2021/11/25 09:32:06;;;;;;;;;;;6.30;98.90;;;;;;5018069;28;19968;-75
2021/11/25 09:34:32;;;;;;;;;;;6.30;98.90;;;;;;5025973;28;19917;-77
2021/11/25 09:36:57;;;;;;;;;;;6.30;98.70;;;;;;5025479;28;19921;-78
2021/11/25 09:39:25;;;;;;;;;;;6.40;98.80;;;;;;5021079;28;19917;-74
2021/11/25 09:41:52;;;;;;;;;;;6.40;98.50;;;;;;5023718;28;19964;-75
2021/11/25 09:44:17;;;;;;;;;;;6.40;98.40;;;;;;5025155;28;20422;-74
2021/11/25 09:46:43;;;;;;;;;;;6.40;98.70;;;;;;5025387;28;20000;-75
2021/11/25 09:49:09;;;;;;;;;;;6.50;98.60;;;;;;5023141;28;19913;-75
2021/11/25 09:51:34;;;;;;;;;;;6.50;98.60;;;;;;5021103;28;20407;-75
2021/11/25 09:53:59;;;;;;;;;;;6.50;98.60;;;;;;5021943;28;19921;-74
2021/11/25 09:56:25;;;;;;;;;;;6.50;98.60;;;;;;5025386;28;19917;-75
2021/11/25 09:58:51;;;;;;;;;;;6.60;98.20;;;;;;5025800;28;19921;-74
2021/11/25 10:01:19;;;;;;;;;;;6.50;98.60;;;;;;5019521;28;19924;-76
2021/11/25 10:03:50;;;;;;;;;;;6.60;98.50;;;;;;5022317;28;19913;-76
2021/11/25 10:06:20;;;;;;;;;;;6.60;98.30;;;;;;5018811;28;19983;-75
2021/11/25 10:08:49;;;;;;;;;;;6.60;98.00;;;;;;5026807;28;19917;-75
2021/11/25 10:11:16;;;;;;;;;;;6.60;98.30;;;;;;5021440;28;19969;-75
2021/11/25 10:13:56;;;;;;;;;;;6.60;98.20;;;;;;5021760;28;19949;-75
2021/11/25 10:16:29;;;;;;;;;;;6.60;98.20;;;;;;5022892;28;19921;-75
2021/11/25 10:18:56;;;;;;;;;;;6.60;98.20;;;;;;5025493;28;19924;-75
2021/11/25 10:21:23;;;;;;;;;;;6.60;98.20;;;;;;5006619;28;19913;-76
2021/11/25 10:23:50;;;;;;;;;;;6.70;98.40;;;;;;5023068;28;19917;-77
2021/11/25 10:26:19;;;;;;;;;;;6.70;98.50;;;;;;5025413;28;20003;-78
2021/11/25 10:28:46;;;;;;;;;;;6.80;98.30;;;;;;5024289;28;20371;-76
2021/11/25 10:31:38;;;;;;;;;;;6.80;98.20;;;;;;5022585;28;19913;-77
2021/11/25 10:34:09;;;;;;;;;;;6.90;98.10;;;;;;5019554;28;19913;-76
2021/11/25 10:39:08;;;;;;;;;;;7.00;97.90;;;;;;5025880;28;20016;-76
2021/11/25 10:41:34;;;;;;;;;;;7.00;97.60;;;;;;5025731;28;19917;-76
2021/11/25 10:44:22;;;;;;;;;;;7.00;97.70;;;;;;5026647;28;20273;-76
2021/11/25 10:46:52;;;;;;;;;;;7.00;97.80;;;;;;5026400;28;19917;-76
2021/11/25 10:49:18;;;;;;;;;;;7.00;97.80;;;;;;5027217;28;19913;-78
2021/11/25 10:51:45;;;;;;;;;;;7.00;97.80;;;;;;5021922;28;20367;-77
2021/11/25 10:54:15;;;;;;;;;;;7.00;97.90;;;;;;5024595;28;20076;-77
2021/11/25 10:56:43;;;;;;;;;;;6.90;97.70;;;;;;5022887;28;19917;-77
2021/11/25 10:59:09;;;;;;;;;;;7.00;97.90;;;;;;5025917;28;19920;-75
2021/11/25 11:01:37;;;;;;;;;;;7.10;97.80;;;;;;5023169;28;19917;-75
2021/11/25 11:04:02;;;;;;;;;;;7.20;97.60;;;;;;4998567;28;19917;-76
2021/11/25 11:06:32;;;;;;;;;;;7.30;97.60;;;;;;5023017;28;19921;-77
2021/11/25 11:08:58;;;;;;;;;;;7.30;97.40;;;;;;5022913;28;19921;-79
2021/11/25 11:11:23;;;;;;;;;;;7.30;97.30;;;;;;5026857;28;19920;-81
2021/11/25 11:14:28;;;;;;;;;;;7.30;97.40;;;;;;5009822;28;19990;-75
2021/11/25 11:16:53;;;;;;;;;;;7.30;97.50;;;;;;5024108;28;19921;-81
2021/11/25 11:19:19;;;;;;;;;;;7.40;97.40;;;;;;5003531;28;19921;-79
2021/11/25 11:21:49;;;;;;;;;;;7.40;97.30;;;;;;5026023;28;19918;-80
2021/11/25 11:24:16;;;;;;;;;;;7.50;97.60;;;;;;5027442;28;19913;-79
2021/11/25 11:26:42;;;;;;;;;;;7.50;97.00;;;;;;5029631;28;19909;-79
2021/11/25 11:29:09;;;;;;;;;;;7.50;97.30;;;;;;5030085;28;19924;-80
2021/11/25 11:31:35;;;;;;;;;;;7.50;96.60;;;;;;5012824;28;19917;-79
2021/11/25 11:34:01;;;;;;;;;;;7.50;96.90;;;;;;5030550;28;20303;-79
2021/11/25 11:36:28;;;;;;;;;;;7.50;97.20;;;;;;5032228;28;19913;-79
2021/11/25 11:38:54;;;;;;;;;;;7.60;97.10;;;;;;5031894;28;19940;-79
2021/11/25 11:41:19;;;;;;;;;;;7.50;97.20;;;;;;5031801;28;20381;-79
2021/11/25 11:43:45;;;;;;;;;;;7.60;97.50;;;;;;5029660;28;19917;-79
2021/11/25 11:46:11;;;;;;;;;;;7.60;97.30;;;;;;5030743;28;20377;-79
2021/11/25 11:48:37;;;;;;;;;;;7.60;97.10;;;;;;5031396;28;19909;-80
2021/11/25 11:51:10;;;;;;;;;;;7.70;96.90;;;;;;5030220;28;19917;-79
2021/11/25 11:53:40;;;;;;;;;;;7.70;97.10;;;;;;5032259;28;19920;-79
2021/11/25 11:56:08;;;;;;;;;;;7.70;97.10;;;;;;5008020;28;19921;-78
2021/11/25 11:58:36;;;;;;;;;;;7.70;97.10;;;;;;5026253;28;20433;-77
2021/11/25 12:01:14;;;;;;;;;;;7.70;96.90;;;;;;5027765;28;19917;-76
2021/11/25 12:03:40;;;;;;;;;;;7.60;96.80;;;;;;5030114;28;20384;-76
2021/11/25 12:06:06;;;;;;;;;;;7.70;96.80;;;;;;5029944;28;20322;-77
2021/11/25 12:08:34;;;;;;;;;;;7.70;96.80;;;;;;5029385;28;20043;-78
2021/11/25 12:11:06;;;;;;;;;;;7.60;96.50;;;;;;5028786;28;20437;-78
2021/11/25 12:13:51;;;;;;;;;;;7.60;96.70;;;;;;5025850;28;20037;-78
2021/11/25 12:16:17;;;;;;;;;;;7.60;96.60;;;;;;5029518;28;19921;-78
2021/11/25 12:18:43;;;;;;;;;;;7.60;96.80;;;;;;5026915;28;20185;-77
2021/11/25 12:21:08;;;;;;;;;;;7.50;96.70;;;;;;5011915;28;19917;-78
2021/11/25 12:23:35;;;;;;;;;;;7.50;96.80;;;;;;5002209;28;20001;-77
2021/11/25 12:26:01;;;;;;;;;;;7.50;97.00;;;;;;5028814;28;20402;-77
2021/11/25 12:28:28;;;;;;;;;;;7.50;97.30;;;;;;5027199;28;19983;-78
2021/11/25 12:31:07;;;;;;;;;;;7.60;96.80;;;;;;5030968;28;19917;-78
2021/11/25 12:33:40;;;;;;;;;;;7.60;96.90;;;;;;5027302;28;19924;-78
2021/11/25 12:36:06;;;;;;;;;;;7.60;97.00;;;;;;5027705;28;20379;-80
2021/11/25 12:38:34;;;;;;;;;;;7.60;97.00;;;;;;5024232;28;19939;-79
2021/11/25 12:41:00;;;;;;;;;;;7.60;97.00;;;;;;5027548;28;20388;-76
2021/11/25 12:43:27;;;;;;;;;;;7.60;96.90;;;;;;5027756;28;19960;-77
2021/11/25 12:45:54;;;;;;;;;;;7.60;97.10;;;;;;5024543;28;20004;-76
2021/11/25 12:48:21;;;;;;;;;;;7.60;97.20;;;;;;5027853;28;19963;-76
2021/11/25 12:50:53;;;;;;;;;;;7.60;97.00;;;;;;5028481;28;19909;-76
2021/11/25 12:53:25;;;;;;;;;;;7.60;96.80;;;;;;5028699;28;19910;-78
2021/11/25 12:55:58;;;;;;;;;;;7.60;97.00;;;;;;5027284;28;20013;-77
2021/11/25 12:58:31;;;;;;;;;;;7.50;97.30;;;;;;5025003;28;19917;-76
2021/11/25 13:00:56;;;;;;;;;;;7.50;97.30;;;;;;5044770;22;19929;-72
2021/11/25 13:03:22;;;;;;;;;;;7.50;97.10;;;;;;5024586;28;20000;-72
2021/11/25 13:05:49;;;;;;;;;;;7.50;96.90;;;;;;5028379;28;20016;-72
2021/11/25 13:08:30;;;;;;;;;;;7.40;97.10;;;;;;5026499;28;19918;-72
2021/11/25 13:10:55;;;;;;;;;;;7.50;97.30;;;;;;5028748;28;20414;-71
2021/11/25 13:13:22;;;;;;;;;;;7.40;96.90;;;;;;5026711;28;19998;-71
2021/11/25 13:15:59;;;;;;;;;;;7.40;97.20;;;;;;5028665;28;20000;-71
2021/11/25 13:18:47;;;;;;;;;;;7.40;97.20;;;;;;5027033;28;19967;-71
2021/11/25 13:21:17;;;;;;;;;;;7.40;97.20;;;;;;5026090;28;19913;-71
2021/11/25 13:23:43;;;;;;;;;;;7.40;97.10;;;;;;5025923;28;19959;-72
2021/11/25 13:26:09;;;;;;;;;;;7.40;97.10;;;;;;5028494;28;20195;-73
2021/11/25 13:28:35;;;;;;;;;;;7.40;96.90;;;;;;5029298;28;19964;-72
2021/11/25 13:31:09;;;;;;;;;;;7.30;97.10;;;;;;5026657;28;19917;-73
2021/11/25 13:33:54;;;;;;;;;;;7.40;96.90;;;;;;5026757;28;20333;-72
2021/11/25 13:36:20;;;;;;;;;;;7.30;96.90;;;;;;5024049;28;20403;-73
2021/11/25 13:38:50;;;;;;;;;;;7.30;96.90;;;;;;5027310;28;19917;-73
2021/11/25 13:41:17;;;;;;;;;;;7.30;97.10;;;;;;5024307;28;19932;-73
2021/11/25 13:43:47;;;;;;;;;;;7.30;97.00;;;;;;5026806;28;19996;-73
2021/11/25 13:46:12;;;;;;;;;;;7.30;97.00;;;;;;5028472;28;19913;-73
2021/11/25 13:48:38;;;;;;;;;;;7.30;97.00;;;;;;5024051;28;19913;-74
2021/11/25 13:51:03;;;;;;;;;;;7.20;96.80;;;;;;5022554;28;20402;-71
2021/11/25 13:53:30;;;;;;;;;;;7.20;96.80;;;;;;5026634;28;19909;-72
2021/11/25 13:55:56;;;;;;;;;;;7.10;96.70;;;;;;5026013;28;20283;-72
2021/11/25 13:58:22;;;;;;;;;;;7.10;97.00;;;;;;5023575;28;20391;-73
2021/11/25 14:00:50;;;;;;;;;;;7.10;97.10;;;;;;5026897;28;19927;-72
2021/11/25 14:03:17;;;;;;;;;;;7.10;97.30;;;;;;5027309;28;19928;-72
2021/11/25 14:05:44;;;;;;;;;;;7.10;97.50;;;;;;5023804;28;19924;-72
2021/11/25 14:08:09;;;;;;;;;;;7.10;97.50;;;;;;5025929;28;19945;-73
2021/11/25 14:10:35;;;;;;;;;;;7.10;97.60;;;;;;5021662;28;20442;-73
2021/11/25 14:13:04;;;;;;;;;;;7.00;97.40;;;;;;5024147;28;20456;-73
2021/11/25 14:15:31;;;;;;;;;;;7.00;97.50;;;;;;5025001;28;19924;-73
2021/11/25 14:17:57;;;;;;;;;;;7.00;97.30;;;;;;5025299;28;19947;-73
2021/11/25 14:20:33;;;;;;;;;;;6.90;97.50;;;;;;5027791;28;19989;-73
2021/11/25 14:23:01;;;;;;;;;;;6.90;97.70;;;;;;5027643;28;19918;-74
2021/11/25 14:25:32;;;;;;;;;;;6.90;97.70;;;;;;5026416;28;19921;-73
2021/11/25 14:31:14;;;;;;;;;;;6.80;97.70;;;;;;5026675;28;20280;-73
2021/11/25 14:33:52;;;;;;;;;;;6.80;97.90;;;;;;5027554;28;19913;-73
2021/11/25 14:36:19;;;;;;;;;;;6.80;98.40;;;;;;5021191;28;20383;-74
2021/11/25 14:38:44;;;;;;;;;;;6.80;98.40;;;;;;5026231;28;19936;-74
2021/11/25 14:41:10;;;;;;;;;;;6.80;98.50;;;;;;5023301;28;20369;-73